sensor_id;sensor_type;location;lat;lon;timestamp;pressure;altitude;pressure_sealevel;temperature;humidity
64844;BME280;51310;52.198;5.422;2023-04-05T00:00:59;102339.97;;;1.29;100.00
64844;BME280;51310;52.198;5.422;2023-04-05T00:03:25;102331.88;;;1.26;100.00
64844;BME280;51310;52.198;5.422;2023-04-05T00:05:51;102324.22;;;1.20;100.00
64844;BME280;51310;52.198;5.422;2023-04-05T00:08:19;102329.94;;;1.08;100.00
64844;BME280;51310;52.198;5.422;2023-04-05T00:10:53;102325.25;;;1.00;100.00
64844;BME280;51310;52.198;5.422;2023-04-05T00:13:20;102326.09;;;0.89;100.00
64844;BME280;51310;52.198;5.422;2023-04-05T00:15:47;102322.34;;;0.81;100.00
64844;BME280;51310;52.198;5.422;2023-04-05T00:18:13;102322.78;;;0.79;100.00
64844;BME280;51310;52.198;5.422;2023-04-05T00:20:52;102316.47;;;0.71;100.00
64844;BME280;51310;52.198;5.422;2023-04-05T00:23:18;102315.94;;;0.63;100.00
64844;BME280;51310;52.198;5.422;2023-04-05T00:25:47;102316.16;;;0.58;100.00
64844;BME280;51310;52.198;5.422;2023-04-05T00:28:13;102319.66;;;0.65;100.00
64844;BME280;51310;52.198;5.422;2023-04-05T00:30:39;102323.34;;;0.67;100.00
64844;BME280;51310;52.198;5.422;2023-04-05T00:33:05;102323.78;;;0.58;100.00
64844;BME280;51310;52.198;5.422;2023-04-05T00:35:30;102317.03;;;0.53;100.00
64844;BME280;51310;52.198;5.422;2023-04-05T00:37:56;102314.69;;;0.49;100.00
64844;BME280;51310;52.198;5.422;2023-04-05T00:40:23;102307.34;;;0.51;100.00
64844;BME280;51310;52.198;5.422;2023-04-05T00:42:49;102303.56;;;0.43;100.00
64844;BME280;51310;52.198;5.422;2023-04-05T00:45:15;102309.97;;;0.41;100.00
64844;BME280;51310;52.198;5.422;2023-04-05T00:47:41;102308.16;;;0.40;100.00
64844;BME280;51310;52.198;5.422;2023-04-05T00:50:11;102305.56;;;0.34;100.00
64844;BME280;51310;52.198;5.422;2023-04-05T00:52:39;102306.69;;;0.31;100.00
64844;BME280;51310;52.198;5.422;2023-04-05T00:55:10;102305.34;;;0.33;100.00
64844;BME280;51310;52.198;5.422;2023-04-05T00:57:36;102311.50;;;0.29;100.00
64844;BME280;51310;52.198;5.422;2023-04-05T01:00:06;102304.81;;;0.30;100.00
64844;BME280;51310;52.198;5.422;2023-04-05T01:02:43;102298.78;;;0.24;100.00
64844;BME280;51310;52.198;5.422;2023-04-05T01:11:19;102295.66;;;0.09;100.00
64844;BME280;51310;52.198;5.422;2023-04-05T01:13:45;102295.31;;;0.02;100.00
64844;BME280;51310;52.198;5.422;2023-04-05T01:16:11;102293.47;;;0.01;100.00
64844;BME280;51310;52.198;5.422;2023-04-05T01:18:37;102294.50;;;0.13;100.00
64844;BME280;51310;52.198;5.422;2023-04-05T01:21:31;102283.44;;;0.07;100.00
64844;BME280;51310;52.198;5.422;2023-04-05T01:24:27;102286.16;;;0.03;100.00
64844;BME280;51310;52.198;5.422;2023-04-05T01:27:13;102277.56;;;-0.04;100.00
64844;BME280;51310;52.198;5.422;2023-04-05T01:30:31;102282.44;;;0.01;100.00
64844;BME280;51310;52.198;5.422;2023-04-05T01:33:29;102285.59;;;-0.06;100.00
64844;BME280;51310;52.198;5.422;2023-04-05T01:36:15;102277.50;;;-0.09;100.00
64844;BME280;51310;52.198;5.422;2023-04-05T01:38:45;102278.78;;;-0.17;100.00
64844;BME280;51310;52.198;5.422;2023-04-05T01:41:13;102276.66;;;-0.19;100.00
64844;BME280;51310;52.198;5.422;2023-04-05T01:43:39;102272.91;;;-0.27;100.00
64844;BME280;51310;52.198;5.422;2023-04-05T01:46:05;102276.75;;;-0.14;100.00
64844;BME280;51310;52.198;5.422;2023-04-05T01:48:31;102269.97;;;-0.25;100.00
64844;BME280;51310;52.198;5.422;2023-04-05T01:50:56;102278.72;;;-0.23;100.00
64844;BME280;51310;52.198;5.422;2023-04-05T01:53:22;102276.53;;;-0.31;100.00
64844;BME280;51310;52.198;5.422;2023-04-05T01:55:48;102268.66;;;-0.38;100.00
64844;BME280;51310;52.198;5.422;2023-04-05T01:58:13;102259.44;;;-0.37;100.00
64844;BME280;51310;52.198;5.422;2023-04-05T02:00:39;102253.47;;;-0.38;100.00
64844;BME280;51310;52.198;5.422;2023-04-05T02:03:05;102255.19;;;-0.48;100.00
64844;BME280;51310;52.198;5.422;2023-04-05T02:05:30;102252.59;;;-0.54;100.00
64844;BME280;51310;52.198;5.422;2023-04-05T02:07:56;102257.16;;;-0.57;100.00
64844;BME280;51310;52.198;5.422;2023-04-05T02:10:23;102252.34;;;-0.55;100.00
64844;BME280;51310;52.198;5.422;2023-04-05T02:12:49;102251.34;;;-0.62;100.00
64844;BME280;51310;52.198;5.422;2023-04-05T02:15:15;102252.44;;;-0.65;100.00
64844;BME280;51310;52.198;5.422;2023-04-05T02:17:41;102250.50;;;-0.72;100.00
64844;BME280;51310;52.198;5.422;2023-04-05T02:20:11;102250.03;;;-0.75;100.00
64844;BME280;51310;52.198;5.422;2023-04-05T02:22:39;102253.91;;;-0.77;100.00
64844;BME280;51310;52.198;5.422;2023-04-05T02:25:06;102251.53;;;-0.81;100.00
64844;BME280;51310;52.198;5.422;2023-04-05T02:27:35;102251.72;;;-0.85;100.00
64844;BME280;51310;52.198;5.422;2023-04-05T02:30:01;102242.13;;;-0.82;100.00
64844;BME280;51310;52.198;5.422;2023-04-05T02:32:27;102242.78;;;-0.83;100.00
64844;BME280;51310;52.198;5.422;2023-04-05T02:34:53;102240.44;;;-0.87;100.00
64844;BME280;51310;52.198;5.422;2023-04-05T02:37:19;102237.16;;;-0.92;100.00
64844;BME280;51310;52.198;5.422;2023-04-05T02:39:45;102245.59;;;-0.97;100.00
64844;BME280;51310;52.198;5.422;2023-04-05T02:42:11;102240.28;;;-0.98;100.00
64844;BME280;51310;52.198;5.422;2023-04-05T02:44:37;102241.88;;;-0.99;100.00
64844;BME280;51310;52.198;5.422;2023-04-05T02:47:03;102237.91;;;-1.02;100.00
64844;BME280;51310;52.198;5.422;2023-04-05T02:49:28;102239.28;;;-1.05;100.00
64844;BME280;51310;52.198;5.422;2023-04-05T02:51:54;102234.22;;;-1.05;100.00
64844;BME280;51310;52.198;5.422;2023-04-05T02:54:20;102226.81;;;-1.09;100.00
64844;BME280;51310;52.198;5.422;2023-04-05T02:56:46;102228.16;;;-1.11;100.00
64844;BME280;51310;52.198;5.422;2023-04-05T02:59:14;102225.41;;;-1.12;100.00
64844;BME280;51310;52.198;5.422;2023-04-05T03:01:42;102226.22;;;-1.17;100.00
64844;BME280;51310;52.198;5.422;2023-04-05T03:04:09;102222.94;;;-1.22;100.00
64844;BME280;51310;52.198;5.422;2023-04-05T03:06:38;102219.66;;;-1.27;100.00
64844;BME280;51310;52.198;5.422;2023-04-05T03:09:04;102220.16;;;-1.24;100.00
64844;BME280;51310;52.198;5.422;2023-04-05T03:11:30;102216.63;;;-1.30;100.00
64844;BME280;51310;52.198;5.422;2023-04-05T03:13:56;102216.63;;;-1.30;100.00
64844;BME280;51310;52.198;5.422;2023-04-05T03:16:21;102210.63;;;-1.30;100.00
64844;BME280;51310;52.198;5.422;2023-04-05T03:18:48;102218.00;;;-1.32;100.00
64844;BME280;51310;52.198;5.422;2023-04-05T03:21:14;102212.75;;;-1.28;100.00
64844;BME280;51310;52.198;5.422;2023-04-05T03:23:43;102208.47;;;-1.23;100.00
64844;BME280;51310;52.198;5.422;2023-04-05T03:26:11;102214.09;;;-1.30;100.00
64844;BME280;51310;52.198;5.422;2023-04-05T03:28:40;102215.53;;;-1.26;100.00
64844;BME280;51310;52.198;5.422;2023-04-05T03:31:10;102212.75;;;-1.28;100.00
64844;BME280;51310;52.198;5.422;2023-04-05T03:33:36;102204.84;;;-1.35;100.00
64844;BME280;51310;52.198;5.422;2023-04-05T03:36:03;102206.13;;;-1.42;100.00
64844;BME280;51310;52.198;5.422;2023-04-05T03:38:29;102209.72;;;-1.46;100.00
64844;BME280;51310;52.198;5.422;2023-04-05T03:40:57;102206.94;;;-1.48;100.00
64844;BME280;51310;52.198;5.422;2023-04-05T03:43:23;102200.88;;;-1.38;100.00
64844;BME280;51310;52.198;5.422;2023-04-05T03:45:49;102198.78;;;-1.41;100.00
64844;BME280;51310;52.198;5.422;2023-04-05T03:48:15;102205.50;;;-1.51;100.00
64844;BME280;51310;52.198;5.422;2023-04-05T03:50:45;102208.22;;;-1.55;100.00
64844;BME280;51310;52.198;5.422;2023-04-05T03:53:11;102205.00;;;-1.54;100.00
64844;BME280;51310;52.198;5.422;2023-04-05T03:55:37;102206.75;;;-1.59;100.00
64844;BME280;51310;52.198;5.422;2023-04-05T03:58:02;102202.72;;;-1.53;100.00
64844;BME280;51310;52.198;5.422;2023-04-05T04:00:28;102207.03;;;-1.57;100.00
64844;BME280;51310;52.198;5.422;2023-04-05T04:02:54;102196.19;;;-1.62;100.00
64844;BME280;51310;52.198;5.422;2023-04-05T04:05:20;102198.28;;;-1.59;100.00
64844;BME280;51310;52.198;5.422;2023-04-05T04:07:46;102197.53;;;-1.49;100.00
64844;BME280;51310;52.198;5.422;2023-04-05T04:10:15;102199.09;;;-1.49;100.00
64844;BME280;51310;52.198;5.422;2023-04-05T04:12:44;102200.44;;;-1.51;100.00
64844;BME280;51310;52.198;5.422;2023-04-05T04:15:11;102187.50;;;-1.58;100.00
64844;BME280;51310;52.198;5.422;2023-04-05T04:17:37;102193.38;;;-1.63;100.00
64844;BME280;51310;52.198;5.422;2023-04-05T04:20:07;102196.56;;;-1.65;100.00
64844;BME280;51310;52.198;5.422;2023-04-05T04:22:37;102201.38;;;-1.66;100.00
64844;BME280;51310;52.198;5.422;2023-04-05T04:25:07;102194.41;;;-1.73;100.00
64844;BME280;51310;52.198;5.422;2023-04-05T04:27:42;102202.63;;;-1.74;100.00
64844;BME280;51310;52.198;5.422;2023-04-05T04:30:12;102197.06;;;-1.77;100.00
64844;BME280;51310;52.198;5.422;2023-04-05T04:32:40;102202.28;;;-1.81;100.00
64844;BME280;51310;52.198;5.422;2023-04-05T04:35:31;102205.81;;;-1.75;100.00
64844;BME280;51310;52.198;5.422;2023-04-05T04:38:01;102207.31;;;-1.81;100.00
64844;BME280;51310;52.198;5.422;2023-04-05T04:43:04;102199.16;;;-1.90;100.00
64844;BME280;51310;52.198;5.422;2023-04-05T04:45:30;102204.34;;;-1.94;100.00
64844;BME280;51310;52.198;5.422;2023-04-05T04:47:59;102202.41;;;-2.00;100.00
64844;BME280;51310;52.198;5.422;2023-04-05T04:50:26;102198.44;;;-2.04;100.00
64844;BME280;51310;52.198;5.422;2023-04-05T04:52:51;102201.09;;;-2.08;100.00
64844;BME280;51310;52.198;5.422;2023-04-05T04:55:18;102199.78;;;-2.06;100.00
64844;BME280;51310;52.198;5.422;2023-04-05T04:57:51;102203.47;;;-2.04;100.00
64844;BME280;51310;52.198;5.422;2023-04-05T05:00:18;102204.50;;;-1.98;100.00
64844;BME280;51310;52.198;5.422;2023-04-05T05:02:45;102198.63;;;-1.93;100.00
64844;BME280;51310;52.198;5.422;2023-04-05T05:05:11;102196.03;;;-1.98;100.00
64844;BME280;51310;52.198;5.422;2023-04-05T05:07:39;102199.47;;;-1.98;100.00
64844;BME280;51310;52.198;5.422;2023-04-05T05:10:10;102194.56;;;-2.02;100.00
64844;BME280;51310;52.198;5.422;2023-04-05T05:12:37;102195.00;;;-2.04;100.00
64844;BME280;51310;52.198;5.422;2023-04-05T05:15:04;102192.88;;;-2.07;100.00
64844;BME280;51310;52.198;5.422;2023-04-05T05:17:30;102188.50;;;-2.08;100.00
64844;BME280;51310;52.198;5.422;2023-04-05T05:19:57;102196.31;;;-2.07;100.00
64844;BME280;51310;52.198;5.422;2023-04-05T05:22:25;102194.56;;;-2.02;100.00
64844;BME280;51310;52.198;5.422;2023-04-05T05:24:52;102185.66;;;-2.00;100.00
64844;BME280;51310;52.198;5.422;2023-04-05T05:27:17;102184.81;;;-1.95;100.00
64844;BME280;51310;52.198;5.422;2023-04-05T05:29:43;102191.44;;;-1.86;100.00
64844;BME280;51310;52.198;5.422;2023-04-05T05:32:09;102185.81;;;-1.79;100.00
64844;BME280;51310;52.198;5.422;2023-04-05T05:34:43;102190.50;;;-1.71;100.00
64844;BME280;51310;52.198;5.422;2023-04-05T05:37:10;102190.13;;;-1.53;100.00
64844;BME280;51310;52.198;5.422;2023-04-05T05:39:37;102190.38;;;-1.36;100.00
64844;BME280;51310;52.198;5.422;2023-04-05T05:42:03;102189.41;;;-1.21;100.00
64844;BME280;51310;52.198;5.422;2023-04-05T05:44:29;102190.09;;;-1.07;100.00
64844;BME280;51310;52.198;5.422;2023-04-05T05:46:55;102189.41;;;-0.90;100.00
64844;BME280;51310;52.198;5.422;2023-04-05T05:49:21;102191.97;;;-0.85;100.00
64844;BME280;51310;52.198;5.422;2023-04-05T05:51:49;102188.66;;;-0.74;100.00
64844;BME280;51310;52.198;5.422;2023-04-05T05:54:15;102194.06;;;-0.67;100.00
64844;BME280;51310;52.198;5.422;2023-04-05T05:56:41;102196.63;;;-0.61;100.00
64844;BME280;51310;52.198;5.422;2023-04-05T05:59:06;102191.41;;;-0.57;100.00
64844;BME280;51310;52.198;5.422;2023-04-05T06:01:32;102195.84;;;-0.50;100.00
64844;BME280;51310;52.198;5.422;2023-04-05T06:04:03;102183.47;;;-0.49;100.00
64844;BME280;51310;52.198;5.422;2023-04-05T06:06:29;102186.72;;;-0.44;100.00
64844;BME280;51310;52.198;5.422;2023-04-05T06:08:55;102191.34;;;-0.42;100.00
64844;BME280;51310;52.198;5.422;2023-04-05T06:11:22;102187.03;;;-0.37;100.00
64844;BME280;51310;52.198;5.422;2023-04-05T06:13:49;102187.34;;;-0.30;100.00
64844;BME280;51310;52.198;5.422;2023-04-05T06:16:17;102190.88;;;-0.24;100.00
64844;BME280;51310;52.198;5.422;2023-04-05T06:18:43;102185.84;;;-0.18;100.00
64844;BME280;51310;52.198;5.422;2023-04-05T06:21:09;102191.81;;;-0.17;100.00
64844;BME280;51310;52.198;5.422;2023-04-05T06:23:35;102189.09;;;-0.13;100.00
64844;BME280;51310;52.198;5.422;2023-04-05T06:26:01;102188.06;;;-0.04;100.00
64844;BME280;51310;52.198;5.422;2023-04-05T06:28:27;102189.03;;;0.02;100.00
64844;BME280;51310;52.198;5.422;2023-04-05T06:30:57;102192.31;;;0.07;100.00
64844;BME280;51310;52.198;5.422;2023-04-05T06:33:23;102189.88;;;0.18;100.00
64844;BME280;51310;52.198;5.422;2023-04-05T06:35:48;102183.00;;;0.23;100.00
64844;BME280;51310;52.198;5.422;2023-04-05T06:38:14;102188.34;;;0.30;100.00
64844;BME280;51310;52.198;5.422;2023-04-05T06:40:40;102191.66;;;0.40;100.00
64844;BME280;51310;52.198;5.422;2023-04-05T06:43:07;102185.50;;;0.49;100.00
64844;BME280;51310;52.198;5.422;2023-04-05T06:45:35;102190.63;;;0.55;100.00
64844;BME280;51310;52.198;5.422;2023-04-05T06:48:01;102187.44;;;0.61;100.00
64844;BME280;51310;52.198;5.422;2023-04-05T06:50:26;102192.31;;;0.71;100.00
64844;BME280;51310;52.198;5.422;2023-04-05T06:52:52;102190.75;;;0.77;100.00
64844;BME280;51310;52.198;5.422;2023-04-05T06:55:18;102195.16;;;0.84;100.00
64844;BME280;51310;52.198;5.422;2023-04-05T06:57:43;102194.06;;;0.88;100.00
64844;BME280;51310;52.198;5.422;2023-04-05T07:00:11;102190.41;;;0.97;100.00
64844;BME280;51310;52.198;5.422;2023-04-05T07:02:38;102190.50;;;1.08;100.00
64844;BME280;51310;52.198;5.422;2023-04-05T07:05:04;102187.72;;;1.12;100.00
64844;BME280;51310;52.198;5.422;2023-04-05T07:07:37;102183.84;;;1.20;100.00
64844;BME280;51310;52.198;5.422;2023-04-05T07:10:04;102188.97;;;1.31;100.00
64844;BME280;51310;52.198;5.422;2023-04-05T07:12:30;102177.47;;;1.39;100.00
64844;BME280;51310;52.198;5.422;2023-04-05T07:14:59;102177.47;;;1.44;100.00
64844;BME280;51310;52.198;5.422;2023-04-05T07:17:25;102177.75;;;1.57;100.00
64844;BME280;51310;52.198;5.422;2023-04-05T07:19:50;102177.06;;;1.64;100.00
64844;BME280;51310;52.198;5.422;2023-04-05T07:22:16;102181.03;;;1.73;100.00
64844;BME280;51310;52.198;5.422;2023-04-05T07:24:44;102177.09;;;1.81;100.00
64844;BME280;51310;52.198;5.422;2023-04-05T07:27:11;102176.91;;;1.91;100.00
64844;BME280;51310;52.198;5.422;2023-04-05T07:29:38;102174.84;;;1.99;100.00
64844;BME280;51310;52.198;5.422;2023-04-05T07:32:07;102169.53;;;2.09;100.00
64844;BME280;51310;52.198;5.422;2023-04-05T07:34:33;102173.00;;;2.21;100.00
64844;BME280;51310;52.198;5.422;2023-04-05T07:36:59;102174.84;;;2.39;100.00
64844;BME280;51310;52.198;5.422;2023-04-05T07:39:25;102172.06;;;2.49;100.00
64844;BME280;51310;52.198;5.422;2023-04-05T07:41:51;102169.03;;;2.57;100.00
64844;BME280;51310;52.198;5.422;2023-04-05T07:44:17;102177.81;;;2.70;100.00
64844;BME280;51310;52.198;5.422;2023-04-05T07:46:43;102178.94;;;2.78;100.00
64844;BME280;51310;52.198;5.422;2023-04-05T07:49:10;102172.66;;;2.87;100.00
64844;BME280;51310;52.198;5.422;2023-04-05T07:51:36;102172.41;;;3.02;100.00
64844;BME280;51310;52.198;5.422;2023-04-05T07:54:03;102171.94;;;3.05;100.00
64844;BME280;51310;52.198;5.422;2023-04-05T07:56:32;102165.66;;;3.20;100.00
64844;BME280;51310;52.198;5.422;2023-04-05T07:58:58;102158.19;;;3.33;100.00
64844;BME280;51310;52.198;5.422;2023-04-05T08:01:24;102155.09;;;3.46;100.00
64844;BME280;51310;52.198;5.422;2023-04-05T08:03:53;102157.66;;;3.46;100.00
64844;BME280;51310;52.198;5.422;2023-04-05T08:06:22;102156.88;;;3.59;100.00
64844;BME280;51310;52.198;5.422;2023-04-05T08:08:49;102157.75;;;3.65;100.00
64844;BME280;51310;52.198;5.422;2023-04-05T08:11:15;102161.59;;;3.80;100.00
64844;BME280;51310;52.198;5.422;2023-04-05T08:13:41;102164.25;;;3.98;100.00
64844;BME280;51310;52.198;5.422;2023-04-05T08:16:09;102161.78;;;4.17;100.00
64844;BME280;51310;52.198;5.422;2023-04-05T08:18:36;102162.88;;;4.24;100.00
64844;BME280;51310;52.198;5.422;2023-04-05T08:21:02;102161.72;;;4.28;100.00
64844;BME280;51310;52.198;5.422;2023-04-05T08:23:28;102167.19;;;4.37;100.00
64844;BME280;51310;52.198;5.422;2023-04-05T08:25:54;102163.78;;;4.55;100.00
64844;BME280;51310;52.198;5.422;2023-04-05T08:28:20;102162.88;;;4.72;100.00
64844;BME280;51310;52.198;5.422;2023-04-05T08:30:46;102161.19;;;4.79;100.00
64844;BME280;51310;52.198;5.422;2023-04-05T08:33:12;102160.50;;;4.80;100.00
64844;BME280;51310;52.198;5.422;2023-04-05T08:35:39;102161.34;;;4.86;100.00
64844;BME280;51310;52.198;5.422;2023-04-05T08:38:06;102150.69;;;5.07;100.00
64844;BME280;51310;52.198;5.422;2023-04-05T08:40:46;102149.41;;;5.16;100.00
64844;BME280;51310;52.198;5.422;2023-04-05T08:43:22;102150.25;;;5.22;100.00
64844;BME280;51310;52.198;5.422;2023-04-05T08:45:51;102144.06;;;5.33;98.76
64844;BME280;51310;52.198;5.422;2023-04-05T08:48:18;102145.50;;;5.31;97.59
64844;BME280;51310;52.198;5.422;2023-04-05T08:50:52;102144.25;;;5.40;95.09
64844;BME280;51310;52.198;5.422;2023-04-05T08:53:18;102148.91;;;5.55;91.40
64844;BME280;51310;52.198;5.422;2023-04-05T08:55:49;102143.84;;;5.50;88.00
64844;BME280;51310;52.198;5.422;2023-04-05T08:58:17;102149.41;;;5.66;83.43
64844;BME280;51310;52.198;5.422;2023-04-05T09:00:45;102149.47;;;5.79;80.04
64844;BME280;51310;52.198;5.422;2023-04-05T09:03:15;102146.28;;;5.74;79.49
64844;BME280;51310;52.198;5.422;2023-04-05T09:05:49;102142.75;;;5.79;67.75
64844;BME280;51310;52.198;5.422;2023-04-05T09:08:16;102142.56;;;5.90;68.69
64844;BME280;51310;52.198;5.422;2023-04-05T09:10:43;102137.31;;;6.02;65.84
64844;BME280;51310;52.198;5.422;2023-04-05T09:13:09;102141.81;;;6.10;65.71
64844;BME280;51310;52.198;5.422;2023-04-05T09:15:36;102136.50;;;6.21;66.80
64844;BME280;51310;52.198;5.422;2023-04-05T09:18:02;102144.78;;;6.26;56.08
64844;BME280;51310;52.198;5.422;2023-04-05T09:20:28;102144.50;;;6.30;55.90
64844;BME280;51310;52.198;5.422;2023-04-05T09:22:56;102146.34;;;6.31;56.34
64844;BME280;51310;52.198;5.422;2023-04-05T09:27:58;102139.69;;;6.26;56.49
64844;BME280;51310;52.198;5.422;2023-04-05T09:30:25;102144.41;;;6.35;58.83
64844;BME280;51310;52.198;5.422;2023-04-05T09:32:53;102144.81;;;6.51;57.75
64844;BME280;51310;52.198;5.422;2023-04-05T09:35:29;102140.72;;;6.72;57.75
64844;BME280;51310;52.198;5.422;2023-04-05T09:38:01;102141.50;;;6.78;58.58
64844;BME280;51310;52.198;5.422;2023-04-05T09:40:40;102134.56;;;6.77;57.49
64844;BME280;51310;52.198;5.422;2023-04-05T09:43:08;102131.41;;;6.85;59.25
64844;BME280;51310;52.198;5.422;2023-04-05T09:45:41;102135.38;;;6.96;58.81
64844;BME280;51310;52.198;5.422;2023-04-05T09:48:08;102127.44;;;7.07;59.11
64844;BME280;51310;52.198;5.422;2023-04-05T09:50:34;102135.69;;;6.92;56.79
64844;BME280;51310;52.198;5.422;2023-04-05T09:53:12;102131.91;;;6.83;56.08
64844;BME280;51310;52.198;5.422;2023-04-05T09:55:43;102133.66;;;6.64;56.06
64844;BME280;51310;52.198;5.422;2023-04-05T09:58:18;102130.19;;;6.76;56.37
64844;BME280;51310;52.198;5.422;2023-04-05T10:00:50;102134.19;;;6.74;55.63
64844;BME280;51310;52.198;5.422;2023-04-05T10:03:20;102121.97;;;6.91;55.99
64844;BME280;51310;52.198;5.422;2023-04-05T10:05:46;102116.44;;;6.75;56.09
64844;BME280;51310;52.198;5.422;2023-04-05T10:08:19;102119.75;;;6.74;55.21
64844;BME280;51310;52.198;5.422;2023-04-05T10:10:46;102112.34;;;6.83;55.41
64844;BME280;51310;52.198;5.422;2023-04-05T10:13:13;102107.91;;;6.95;55.32
64844;BME280;51310;52.198;5.422;2023-04-05T10:15:46;102107.34;;;7.10;53.93
64844;BME280;51310;52.198;5.422;2023-04-05T10:18:20;102112.47;;;7.10;53.95
64844;BME280;51310;52.198;5.422;2023-04-05T10:20:50;102105.47;;;7.02;54.23
64844;BME280;51310;52.198;5.422;2023-04-05T10:23:27;102098.56;;;7.08;54.12
64844;BME280;51310;52.198;5.422;2023-04-05T10:26:36;102102.22;;;7.10;52.60
64844;BME280;51310;52.198;5.422;2023-04-05T10:29:11;102096.81;;;7.14;53.46
64844;BME280;51310;52.198;5.422;2023-04-05T10:32:03;102091.50;;;7.13;52.66
64844;BME280;51310;52.198;5.422;2023-04-05T10:34:44;102093.72;;;7.17;52.64
64844;BME280;51310;52.198;5.422;2023-04-05T10:40:11;102089.88;;;7.73;51.95
64844;BME280;51310;52.198;5.422;2023-04-05T10:42:46;102094.16;;;7.80;50.55
64844;BME280;51310;52.198;5.422;2023-04-05T10:45:16;102089.53;;;7.77;50.76
64844;BME280;51310;52.198;5.422;2023-04-05T10:47:58;102089.88;;;7.73;51.22
64844;BME280;51310;52.198;5.422;2023-04-05T10:50:27;102084.03;;;7.74;51.72
64844;BME280;51310;52.198;5.422;2023-04-05T10:52:56;102080.28;;;7.65;51.30
64844;BME280;51310;52.198;5.422;2023-04-05T10:55:23;102078.69;;;7.73;50.73
64844;BME280;51310;52.198;5.422;2023-04-05T10:57:49;102080.28;;;7.65;51.33
64844;BME280;51310;52.198;5.422;2023-04-05T11:00:17;102073.06;;;8.02;52.39
64844;BME280;51310;52.198;5.422;2023-04-05T11:02:44;102075.00;;;8.18;51.27
64844;BME280;51310;52.198;5.422;2023-04-05T11:05:34;102063.72;;;8.30;51.41
64844;BME280;51310;52.198;5.422;2023-04-05T11:08:07;102062.63;;;8.35;51.55
64844;BME280;51310;52.198;5.422;2023-04-05T11:10:37;102058.34;;;7.94;50.08
64844;BME280;51310;52.198;5.422;2023-04-05T11:13:06;102071.47;;;7.83;50.99
64844;BME280;51310;52.198;5.422;2023-04-05T11:15:33;102063.81;;;7.90;50.58
64844;BME280;51310;52.198;5.422;2023-04-05T11:20:47;102053.59;;;8.25;47.62
64844;BME280;51310;52.198;5.422;2023-04-05T11:23:21;102054.69;;;8.19;48.09
64844;BME280;51310;52.198;5.422;2023-04-05T11:26:02;102056.47;;;8.13;48.14
64844;BME280;51310;52.198;5.422;2023-04-05T11:28:29;102050.88;;;8.23;47.84
64844;BME280;51310;52.198;5.422;2023-04-05T11:30:57;102051.00;;;8.17;47.60
64844;BME280;51310;52.198;5.422;2023-04-05T11:36:11;102044.25;;;8.52;49.06
64844;BME280;51310;52.198;5.422;2023-04-05T11:38:38;102038.75;;;8.49;47.69
64844;BME280;51310;52.198;5.422;2023-04-05T11:43:36;102034.16;;;8.47;48.39
64844;BME280;51310;52.198;5.422;2023-04-05T11:46:03;102035.72;;;8.73;46.58
64844;BME280;51310;52.198;5.422;2023-04-05T11:48:29;102030.59;;;8.66;45.22
64844;BME280;51310;52.198;5.422;2023-04-05T11:50:56;102030.41;;;8.72;45.67
64844;BME280;51310;52.198;5.422;2023-04-05T11:53:22;102016.91;;;8.46;45.51
64844;BME280;51310;52.198;5.422;2023-04-05T11:55:51;102017.13;;;8.47;46.20
64844;BME280;51310;52.198;5.422;2023-04-05T11:58:24;102020.78;;;8.49;45.50
64844;BME280;51310;52.198;5.422;2023-04-05T12:01:02;102008.56;;;8.68;46.30
64844;BME280;51310;52.198;5.422;2023-04-05T12:03:29;102006.72;;;8.60;46.35
64844;BME280;51310;52.198;5.422;2023-04-05T12:05:57;102002.72;;;8.76;46.39
64844;BME280;51310;52.198;5.422;2023-04-05T12:08:37;102002.72;;;8.69;46.44
64844;BME280;51310;52.198;5.422;2023-04-05T12:11:07;101999.72;;;8.52;46.45
64844;BME280;51310;52.198;5.422;2023-04-05T12:13:34;101999.78;;;8.73;46.29
64844;BME280;51310;52.198;5.422;2023-04-05T12:16:07;101997.78;;;8.78;45.90
64844;BME280;51310;52.198;5.422;2023-04-05T12:18:37;101994.31;;;8.77;45.82
64844;BME280;51310;52.198;5.422;2023-04-05T12:21:12;102001.66;;;8.89;45.83
64844;BME280;51310;52.198;5.422;2023-04-05T12:23:38;101997.47;;;9.11;45.77
64844;BME280;51310;52.198;5.422;2023-04-05T12:26:06;101988.31;;;9.20;45.33
64844;BME280;51310;52.198;5.422;2023-04-05T12:31:14;101986.22;;;8.74;43.76
64844;BME280;51310;52.198;5.422;2023-04-05T12:33:42;101991.94;;;9.00;44.21
64844;BME280;51310;52.198;5.422;2023-04-05T12:36:08;101984.47;;;9.23;43.63
64844;BME280;51310;52.198;5.422;2023-04-05T12:38:36;101988.31;;;9.20;43.02
64844;BME280;51310;52.198;5.422;2023-04-05T12:41:03;101982.78;;;8.88;42.71
64844;BME280;51310;52.198;5.422;2023-04-05T12:43:39;101981.72;;;9.08;43.21
64844;BME280;51310;52.198;5.422;2023-04-05T12:46:10;101977.84;;;8.97;43.06
64844;BME280;51310;52.198;5.422;2023-04-05T12:48:37;101978.97;;;9.28;43.09
64844;BME280;51310;52.198;5.422;2023-04-05T12:51:03;101975.47;;;9.13;41.65
64844;BME280;51310;52.198;5.422;2023-04-05T12:53:44;101973.81;;;8.99;41.17
64844;BME280;51310;52.198;5.422;2023-04-05T12:56:11;101967.75;;;9.13;41.82
64844;BME280;51310;52.198;5.422;2023-04-05T12:58:37;101966.84;;;9.19;41.44
64844;BME280;51310;52.198;5.422;2023-04-05T13:01:04;101965.00;;;9.11;40.49
64844;BME280;51310;52.198;5.422;2023-04-05T13:03:30;101952.38;;;9.27;40.57
64844;BME280;51310;52.198;5.422;2023-04-05T13:05:56;101951.22;;;9.39;40.91
64844;BME280;51310;52.198;5.422;2023-04-05T13:08:23;101951.97;;;9.45;41.17
64844;BME280;51310;52.198;5.422;2023-04-05T13:10:51;101951.00;;;9.74;41.04
64844;BME280;51310;52.198;5.422;2023-04-05T13:13:18;101945.91;;;9.52;40.74
64844;BME280;51310;52.198;5.422;2023-04-05T13:15:46;101944.44;;;9.33;40.96
64844;BME280;51310;52.198;5.422;2023-04-05T13:18:11;101942.25;;;9.43;41.05
64844;BME280;51310;52.198;5.422;2023-04-05T13:20:44;101940.25;;;9.40;39.62
64844;BME280;51310;52.198;5.422;2023-04-05T13:23:10;101934.00;;;9.24;39.60